Time;durP1;ratioP1;P1;durP2;ratioP2;P2;SDS_P1;SDS_P2;PMS_P1;PMS_P2;Temp;Humidity;BMP_temperature;BMP_pressure;BME280_temperature;BME280_humidity;BME280_pressure;Samples;Min_cycle;Max_cycle;Signal;HPM_P1;HPM_P2
2022/08/14 00:12:54;;;;;;;12.68;4.18;;;;;;;24.74;47.68;99593.56;31623046;28;19942;-74
2022/08/14 00:27:58;;;;;;;15.60;5.32;;;;;;;24.67;48.07;99588.63;31620368;28;20045;-74
2022/08/14 00:43:04;;;;;;;17.08;6.85;;;;;;;24.63;48.83;99577.06;31621845;28;20139;-75
2022/08/14 01:13:34;;;;;;;17.45;6.68;;;;;;;24.49;50.63;99572.75;31598039;28;19919;-75
2022/08/14 01:28:43;;;;;;;15.85;7.15;;;;;;;24.38;50.73;99570.13;31628379;28;20079;-74
2022/08/14 01:44:00;;;;;;;12.00;6.45;;;;;;;24.30;51.38;99563.72;31626815;28;20043;-76
2022/08/14 01:59:08;;;;;;;10.38;5.25;;;;;;;24.22;52.60;99577.41;31619925;28;20116;-74
2022/08/14 02:14:19;;;;;;;10.05;6.82;;;;;;;24.20;52.54;99584.75;31616267;28;20051;-74
2022/08/14 02:29:32;;;;;;;13.65;6.03;;;;;;;24.23;52.11;99584.44;31585001;28;20051;-74
2022/08/14 02:44:54;;;;;;;9.97;6.07;;;;;;;24.22;52.82;99582.19;31601503;28;20452;-74
2022/08/14 02:59:58;;;;;;;11.80;6.13;;;;;;;24.18;53.32;99582.50;31604226;28;20055;-75
2022/08/14 03:15:12;;;;;;;11.75;6.95;;;;;;;24.14;53.04;99571.69;31579462;28;20060;-76
2022/08/14 03:30:17;;;;;;;15.40;6.70;;;;;;;24.27;52.92;99568.28;31618297;28;21049;-75
2022/08/14 03:45:24;;;;;;;8.65;5.53;;;;;;;24.45;52.08;99555.66;31598945;28;20112;-74
2022/08/14 04:00:40;;;;;;;8.60;5.03;;;;;;;24.67;51.12;99555.31;31594841;28;20663;-74
2022/08/14 04:15:48;;;;;;;6.43;4.47;;;;;;;25.18;48.29;99560.81;31614231;28;20049;-74
2022/08/14 04:31:03;;;;;;;8.77;4.63;;;;;;;25.57;46.18;99537.84;31635933;28;20051;-74
2022/08/14 04:46:11;;;;;;;10.85;4.75;;;;;;;25.51;45.94;99550.38;31618761;28;20395;-74
2022/08/14 05:01:33;;;;;;;11.52;4.90;;;;;;;25.53;45.55;99531.09;31624104;28;20054;-76
2022/08/14 05:16:41;;;;;;;18.08;4.95;;;;;;;25.94;44.45;99542.44;31601735;28;20055;-75
2022/08/14 05:31:43;;;;;;;14.70;5.43;;;;;;;26.56;43.25;99555.72;31626598;28;20128;-75
2022/08/14 05:46:45;;;;;;;13.80;4.90;;;;;;;26.91;42.08;99553.63;31596605;28;20049;-75
2022/08/14 06:01:47;;;;;;;10.38;5.22;;;;;;;27.10;41.02;99562.53;31592028;28;20423;-75
2022/08/14 06:16:51;;;;;;;15.35;4.80;;;;;;;27.64;40.39;99546.88;31604750;28;20048;-76
2022/08/14 06:31:54;;;;;;;10.07;4.68;;;;;;;28.63;38.83;99541.63;31575750;28;20409;-77
2022/08/14 06:47:16;;;;;;;16.35;5.40;;;;;;;29.17;37.66;99549.47;31573858;28;20093;-75
2022/08/14 07:17:49;;;;;;;7.22;4.53;;;;;;;30.74;35.10;99558.34;31556498;28;20487;-77
2022/08/14 07:32:53;;;;;;;6.53;4.38;;;;;;;32.02;34.68;99559.72;31584255;28;20044;-76
2022/08/14 07:47:56;;;;;;;15.13;4.97;;;;;;;31.90;34.30;99550.31;31593428;28;20105;-77
2022/08/14 08:02:59;;;;;;;11.32;5.13;;;;;;;32.53;32.76;99548.34;31587084;28;20148;-78
2022/08/14 08:18:06;;;;;;;11.18;3.78;;;;;;;33.39;28.20;99544.31;31611431;28;20046;-79
2022/08/14 08:33:24;;;;;;;14.67;4.13;;;;;;;33.45;27.38;99518.69;31622938;28;20044;-78
2022/08/14 08:49:02;;;;;;;9.50;4.13;;;;;;;33.53;27.46;99519.28;31599705;28;20048;-79
2022/08/14 09:04:03;;;;;;;9.52;4.90;;;;;;;34.26;26.62;99518.13;31573925;28;20044;-79
2022/08/14 09:19:18;;;;;;;9.85;4.50;;;;;;;35.00;25.02;99513.34;31548988;28;20605;-81
2022/08/14 09:34:47;;;;;;;8.73;4.47;;;;;;;35.30;24.23;99518.22;31597577;28;20040;-76
2022/08/14 09:50:00;;;;;;;9.55;4.53;;;;;;;35.20;23.08;99497.75;31570754;28;20056;-79
2022/08/14 10:05:02;;;;;;;7.57;4.38;;;;;;;35.28;22.79;99508.84;31613949;28;20131;-79
2022/08/14 10:20:06;;;;;;;9.75;4.50;;;;;;;35.86;22.77;99506.28;31559868;28;20484;-78
2022/08/14 10:35:39;;;;;;;6.65;3.90;;;;;;;35.28;23.14;99509.59;31579395;28;20495;-77
2022/08/14 10:50:50;;;;;;;6.80;3.80;;;;;;;35.16;22.85;99503.16;31570774;28;20393;-82
2022/08/14 11:05:52;;;;;;;8.88;3.97;;;;;;;33.95;23.48;99506.81;31588009;28;20522;-76
2022/08/14 11:20:59;;;;;;;8.60;4.30;;;;;;;33.77;24.10;99511.88;31567688;28;20055;-77
2022/08/14 11:36:05;;;;;;;8.45;4.72;;;;;;;33.85;23.41;99520.91;31628915;28;20047;-75
2022/08/14 11:51:27;;;;;;;6.60;3.95;;;;;;;33.74;23.94;99498.97;31620976;28;20075;-75
2022/08/14 12:06:32;;;;;;;9.80;4.03;;;;;;;33.42;24.63;99484.03;31577965;28;20155;-79
2022/08/14 12:21:49;;;;;;;8.55;4.22;;;;;;;33.33;24.39;99490.41;31599247;28;20068;-76
2022/08/14 12:37:07;;;;;;;9.48;5.35;;;;;;;32.65;25.55;99481.09;31576532;28;20048;-78
2022/08/14 12:52:12;;;;;;;10.00;4.85;;;;;;;32.31;25.86;99475.69;31597243;28;20159;-77
2022/08/14 13:07:18;;;;;;;11.60;4.32;;;;;;;32.02;26.58;99470.66;31599377;28;20056;-76
2022/08/14 13:22:25;;;;;;;19.05;4.68;;;;;;;31.97;26.97;99459.66;31602179;28;20059;-77
2022/08/14 13:37:34;;;;;;;9.45;4.75;;;;;;;32.26;27.16;99457.78;31574921;28;20044;-76
2022/08/14 13:52:52;;;;;;;8.48;4.15;;;;;;;32.42;26.77;99458.25;31581451;28;20097;-76
2022/08/14 14:08:01;;;;;;;9.75;4.85;;;;;;;32.32;27.40;99449.06;31544370;28;20098;-76
2022/08/14 14:23:09;;;;;;;12.07;4.18;;;;;;;31.98;27.47;99439.44;31587099;28;20464;-76
2022/08/14 14:38:20;;;;;;;8.18;4.60;;;;;;;31.82;27.72;99438.19;31571953;28;20060;-75
2022/08/14 14:53:32;;;;;;;9.35;5.85;;;;;;;31.63;29.07;99429.63;31565670;28;20112;-74
2022/08/14 15:08:56;;;;;;;22.15;9.63;;;;;;;31.09;30.94;99410.63;31571450;28;20052;-76
2022/08/14 15:24:02;;;;;;;17.48;8.10;;;;;;;30.79;31.43;99400.50;31584071;28;20040;-76
2022/08/14 15:39:05;;;;;;;14.25;8.27;;;;;;;30.37;33.65;99403.31;31601808;28;20147;-75
2022/08/14 15:54:07;;;;;;;18.98;8.25;;;;;;;29.98;35.03;99399.31;31601966;28;20044;-76
2022/08/14 16:09:12;;;;;;;14.25;7.93;;;;;;;30.04;35.76;99402.63;31563101;28;20048;-77
2022/08/14 16:24:15;;;;;;;10.73;5.88;;;;;;;30.02;36.64;99424.81;31593767;28;20503;-79
2022/08/14 16:39:28;;;;;;;19.50;7.72;;;;;;;30.24;33.85;99408.44;31597608;28;20081;-77
2022/08/14 16:54:33;;;;;;;17.55;8.10;;;;;;;30.48;32.33;99421.66;31571791;28;20411;-78
2022/08/14 17:09:52;;;;;;;16.45;8.85;;;;;;;30.30;32.42;99423.69;31590383;27;20051;-77
2022/08/14 17:24:55;;;;;;;9.67;5.10;;;;;;;30.09;32.47;99424.03;31578668;28;20048;-78
2022/08/14 17:40:22;;;;;;;15.45;7.43;;;;;;;29.89;32.67;99447.47;31581954;28;20060;-78
2022/08/14 17:55:26;;;;;;;13.25;6.22;;;;;;;29.64;33.20;99432.69;31584725;28;20064;-77
2022/08/14 18:10:48;;;;;;;27.45;10.05;;;;;;;29.40;33.63;99443.22;31585557;28;20052;-77
2022/08/14 18:25:58;;;;;;;22.63;8.68;;;;;;;29.17;34.02;99434.16;31575116;28;20224;-81
2022/08/14 18:41:28;;;;;;;16.55;7.43;;;;;;;28.99;34.16;99422.09;31574747;28;20411;-80
2022/08/14 18:56:58;;;;;;;17.45;7.68;;;;;;;28.83;34.72;99415.78;31599655;28;20063;-80
2022/08/14 19:12:02;;;;;;;22.83;11.52;;;;;;;28.67;34.53;99408.72;31551565;28;20056;-81
2022/08/14 19:27:23;;;;;;;13.85;8.07;;;;;;;28.52;35.11;99394.78;31592099;28;20051;-83
2022/08/14 19:42:35;;;;;;;11.68;6.32;;;;;;;28.39;34.96;99394.97;31552773;28;20052;-79
2022/08/14 19:57:52;;;;;;;22.10;9.37;;;;;;;28.27;34.70;99399.44;31565109;28;20062;-79
2022/08/14 20:13:03;;;;;;;21.02;9.50;;;;;;;28.17;35.31;99374.84;31563399;28;20056;-78
2022/08/14 20:28:32;;;;;;;19.73;6.57;;;;;;;28.04;35.26;99365.94;31596149;28;20134;-78
2022/08/14 20:59:14;;;;;;;7.03;4.30;;;;;;;27.83;34.82;99341.00;31601654;28;20642;-76
2022/08/14 21:14:21;;;;;;;9.63;5.45;;;;;;;27.68;34.76;99346.53;31548105;28;20411;-76
2022/08/14 21:29:29;;;;;;;11.40;5.33;;;;;;;27.45;35.17;99336.06;31574740;28;20464;-78
2022/08/14 21:44:32;;;;;;;8.70;4.53;;;;;;;27.24;35.20;99326.34;31586347;28;20052;-75
2022/08/14 21:59:45;;;;;;;10.25;4.60;;;;;;;27.04;36.00;99302.88;31591226;28;20087;-77
2022/08/14 22:14:52;;;;;;;10.30;4.63;;;;;;;26.90;36.05;99305.03;31600356;28;20052;-75
2022/08/14 22:29:57;;;;;;;11.88;4.72;;;;;;;26.88;36.08;99290.19;31595080;28;20087;-77
2022/08/14 22:44:59;;;;;;;5.97;4.15;;;;;;;26.84;35.73;99268.25;31594840;28;20127;-78
2022/08/14 23:00:08;;;;;;;9.25;4.40;;;;;;;26.78;35.51;99254.50;31577864;28;20075;-78
2022/08/14 23:15:13;;;;;;;11.63;4.50;;;;;;;26.75;35.83;99261.16;31577875;28;20053;-78
2022/08/14 23:30:21;;;;;;;9.00;4.85;;;;;;;26.65;35.84;99251.84;31573062;28;20057;-77
2022/08/14 23:45:44;;;;;;;7.50;4.55;;;;;;;26.63;35.86;99282.28;31612393;28;20135;-77
